sensor_id;sensor_type;location;lat;lon;timestamp;pressure;altitude;pressure_sealevel;temperature;humidity
45793;BME280;31495;42.740;22.908;2023-04-05T00:00:46;92589.50;;;-1.42;83.62
45793;BME280;31495;42.740;22.908;2023-04-05T00:01:46;92524.13;;;-1.82;83.64
45793;BME280;31495;42.740;22.908;2023-04-05T00:02:48;92526.22;;;-1.78;83.96
45793;BME280;31495;42.740;22.908;2023-04-05T00:03:47;92610.44;;;-1.40;83.84
45793;BME280;31495;42.740;22.908;2023-04-05T00:04:47;92554.47;;;-1.73;83.53
45793;BME280;31495;42.740;22.908;2023-04-05T00:05:50;92555.00;;;-1.87;83.89
45793;BME280;31495;42.740;22.908;2023-04-05T00:06:52;92587.91;;;-1.69;84.53
45793;BME280;31495;42.740;22.908;2023-04-05T00:07:52;92567.72;;;-1.79;84.74
45793;BME280;31495;42.740;22.908;2023-04-05T00:08:52;92566.25;;;-1.90;84.71
45793;BME280;31495;42.740;22.908;2023-04-05T00:09:54;92548.56;;;-1.81;85.17
45793;BME280;31495;42.740;22.908;2023-04-05T00:10:54;92537.09;;;-1.86;85.12
45793;BME280;31495;42.740;22.908;2023-04-05T00:11:53;92576.41;;;-1.63;84.61
45793;BME280;31495;42.740;22.908;2023-04-05T00:12:52;92576.06;;;-1.69;84.89
45793;BME280;31495;42.740;22.908;2023-04-05T00:13:52;92505.97;;;-2.22;84.74
45793;BME280;31495;42.740;22.908;2023-04-05T00:14:52;92540.94;;;-1.81;85.07
45793;BME280;31495;42.740;22.908;2023-04-05T00:15:51;92561.81;;;-1.61;85.09
45793;BME280;31495;42.740;22.908;2023-04-05T00:16:51;92581.13;;;-1.69;84.48
45793;BME280;31495;42.740;22.908;2023-04-05T00:17:50;92553.38;;;-1.96;84.99
45793;BME280;31495;42.740;22.908;2023-04-05T00:18:53;92548.59;;;-1.99;84.87
45793;BME280;31495;42.740;22.908;2023-04-05T00:19:53;92565.38;;;-1.72;84.82
45793;BME280;31495;42.740;22.908;2023-04-05T00:20:55;92568.84;;;-1.81;84.65
45793;BME280;31495;42.740;22.908;2023-04-05T00:21:55;92592.31;;;-1.79;84.54
45793;BME280;31495;42.740;22.908;2023-04-05T00:22:54;92575.34;;;-1.79;84.61
45793;BME280;31495;42.740;22.908;2023-04-05T00:23:55;92550.34;;;-2.00;84.85
45793;BME280;31495;42.740;22.908;2023-04-05T00:24:56;92581.75;;;-1.67;85.05
45793;BME280;31495;42.740;22.908;2023-04-05T00:25:56;92556.69;;;-1.70;85.05
45793;BME280;31495;42.740;22.908;2023-04-05T00:26:56;92585.75;;;-1.64;84.82
45793;BME280;31495;42.740;22.908;2023-04-05T00:27:56;92514.63;;;-2.07;84.39
45793;BME280;31495;42.740;22.908;2023-04-05T00:28:55;92542.88;;;-1.75;84.61
45793;BME280;31495;42.740;22.908;2023-04-05T00:29:55;92558.44;;;-1.70;84.27
45793;BME280;31495;42.740;22.908;2023-04-05T00:30:54;92581.25;;;-1.44;83.89
45793;BME280;31495;42.740;22.908;2023-04-05T00:31:54;92532.59;;;-1.74;83.58
45793;BME280;31495;42.740;22.908;2023-04-05T00:32:54;92580.28;;;-1.43;83.31
45793;BME280;31495;42.740;22.908;2023-04-05T00:33:54;92581.44;;;-1.37;83.25
45793;BME280;31495;42.740;22.908;2023-04-05T00:34:54;92566.28;;;-1.55;83.04
45793;BME280;31495;42.740;22.908;2023-04-05T00:35:53;92598.91;;;-1.34;82.84
45793;BME280;31495;42.740;22.908;2023-04-05T00:36:53;92578.53;;;-1.51;82.19
45793;BME280;31495;42.740;22.908;2023-04-05T00:37:52;92591.44;;;-1.36;82.22
45793;BME280;31495;42.740;22.908;2023-04-05T00:38:53;92593.03;;;-1.35;82.79
45793;BME280;31495;42.740;22.908;2023-04-05T00:39:53;92595.84;;;-1.38;83.15
45793;BME280;31495;42.740;22.908;2023-04-05T00:40:55;92583.09;;;-1.54;83.31
45793;BME280;31495;42.740;22.908;2023-04-05T00:41:54;92577.38;;;-1.56;83.25
45793;BME280;31495;42.740;22.908;2023-04-05T00:42:54;92593.22;;;-1.54;83.56
45793;BME280;31495;42.740;22.908;2023-04-05T00:43:53;92558.41;;;-1.78;83.60
45793;BME280;31495;42.740;22.908;2023-04-05T00:44:55;92568.94;;;-1.65;83.69
45793;BME280;31495;42.740;22.908;2023-04-05T00:45:55;92580.34;;;-1.61;83.76
45793;BME280;31495;42.740;22.908;2023-04-05T00:46:55;92584.28;;;-1.40;83.48
45793;BME280;31495;42.740;22.908;2023-04-05T00:47:54;92569.22;;;-1.42;83.59
45793;BME280;31495;42.740;22.908;2023-04-05T00:48:54;92581.34;;;-1.27;83.36
45793;BME280;31495;42.740;22.908;2023-04-05T00:49:54;92584.88;;;-1.12;82.92
45793;BME280;31495;42.740;22.908;2023-04-05T00:50:54;92571.72;;;-1.07;81.81
45793;BME280;31495;42.740;22.908;2023-04-05T00:51:56;92549.31;;;-1.20;81.35
45793;BME280;31495;42.740;22.908;2023-04-05T00:52:56;92560.94;;;-1.09;81.16
45793;BME280;31495;42.740;22.908;2023-04-05T00:53:57;92539.16;;;-1.20;81.01
45793;BME280;31495;42.740;22.908;2023-04-05T00:54:56;92592.44;;;-0.86;81.20
45793;BME280;31495;42.740;22.908;2023-04-05T00:55:56;92546.81;;;-1.04;81.06
45793;BME280;31495;42.740;22.908;2023-04-05T00:56:57;92590.41;;;-0.74;80.85
45793;BME280;31495;42.740;22.908;2023-04-05T00:57:58;92576.91;;;-0.75;80.76
45793;BME280;31495;42.740;22.908;2023-04-05T00:58:58;92547.03;;;-0.89;80.41
45793;BME280;31495;42.740;22.908;2023-04-05T00:59:58;92576.78;;;-0.65;79.86
45793;BME280;31495;42.740;22.908;2023-04-05T01:01:17;92589.47;;;-0.65;79.74
45793;BME280;31495;42.740;22.908;2023-04-05T01:02:23;92580.75;;;-0.70;79.44
45793;BME280;31495;42.740;22.908;2023-04-05T01:03:28;92560.50;;;-1.05;79.77
45793;BME280;31495;42.740;22.908;2023-04-05T01:04:31;92542.47;;;-1.20;80.22
45793;BME280;31495;42.740;22.908;2023-04-05T01:05:51;92581.00;;;-0.90;80.54
45793;BME280;31495;42.740;22.908;2023-04-05T01:07:22;92580.63;;;-1.03;80.50
45793;BME280;31495;42.740;22.908;2023-04-05T01:08:44;92555.94;;;-1.36;81.42
45793;BME280;31495;42.740;22.908;2023-04-05T01:09:52;92593.22;;;-1.28;81.37
45793;BME280;31495;42.740;22.908;2023-04-05T01:10:56;92557.13;;;-1.48;81.88
45793;BME280;31495;42.740;22.908;2023-04-05T01:12:00;92573.31;;;-1.49;82.04
45793;BME280;31495;42.740;22.908;2023-04-05T01:13:01;92579.63;;;-1.53;82.74
45793;BME280;31495;42.740;22.908;2023-04-05T01:14:01;92570.69;;;-1.65;82.74
45793;BME280;31495;42.740;22.908;2023-04-05T01:15:01;92577.41;;;-1.48;83.03
45793;BME280;31495;42.740;22.908;2023-04-05T01:16:01;92590.69;;;-1.28;82.57
45793;BME280;31495;42.740;22.908;2023-04-05T01:17:00;92557.75;;;-1.46;81.97
45793;BME280;31495;42.740;22.908;2023-04-05T01:18:01;92593.59;;;-1.23;81.65
45793;BME280;31495;42.740;22.908;2023-04-05T01:19:01;92530.47;;;-1.52;81.57
45793;BME280;31495;42.740;22.908;2023-04-05T01:20:05;92595.06;;;-1.04;81.53
45793;BME280;31495;42.740;22.908;2023-04-05T01:21:22;92590.56;;;-1.18;81.39
45793;BME280;31495;42.740;22.908;2023-04-05T01:23:11;92600.16;;;-1.38;81.74
45793;BME280;31495;42.740;22.908;2023-04-05T01:27:28;92601.03;;;-1.21;81.45
45793;BME280;31495;42.740;22.908;2023-04-05T01:29:17;92599.28;;;-1.21;81.77
45793;BME280;31495;42.740;22.908;2023-04-05T01:30:19;92562.84;;;-1.46;81.65
45793;BME280;31495;42.740;22.908;2023-04-05T01:33:58;92611.84;;;-1.19;81.23
45793;BME280;31495;42.740;22.908;2023-04-05T01:35:01;92599.78;;;-1.17;81.12
45793;BME280;31495;42.740;22.908;2023-04-05T01:37:19;92576.53;;;-1.39;81.74
45793;BME280;31495;42.740;22.908;2023-04-05T01:38:23;92609.53;;;-1.04;81.79
45793;BME280;31495;42.740;22.908;2023-04-05T01:39:23;92590.09;;;-1.14;81.69
45793;BME280;31495;42.740;22.908;2023-04-05T01:40:23;92600.00;;;-1.02;81.29
45793;BME280;31495;42.740;22.908;2023-04-05T01:41:24;92617.84;;;-0.86;80.91
45793;BME280;31495;42.740;22.908;2023-04-05T01:42:25;92620.06;;;-0.83;79.97
45793;BME280;31495;42.740;22.908;2023-04-05T01:43:24;92615.63;;;-0.81;80.05
45793;BME280;31495;42.740;22.908;2023-04-05T01:44:23;92575.69;;;-1.13;80.81
45793;BME280;31495;42.740;22.908;2023-04-05T01:45:23;92598.13;;;-0.92;80.67
45793;BME280;31495;42.740;22.908;2023-04-05T01:46:23;92612.03;;;-0.70;80.45
45793;BME280;31495;42.740;22.908;2023-04-05T01:47:22;92620.88;;;-0.74;79.63
45793;BME280;31495;42.740;22.908;2023-04-05T01:48:22;92601.47;;;-0.91;79.23
45793;BME280;31495;42.740;22.908;2023-04-05T01:49:22;92607.78;;;-0.96;79.25
45793;BME280;31495;42.740;22.908;2023-04-05T01:50:22;92613.63;;;-1.03;79.69
45793;BME280;31495;42.740;22.908;2023-04-05T01:51:22;92615.09;;;-1.01;79.91
45793;BME280;31495;42.740;22.908;2023-04-05T01:52:21;92617.91;;;-1.04;80.15
45793;BME280;31495;42.740;22.908;2023-04-05T01:53:21;92621.06;;;-1.10;80.43
45793;BME280;31495;42.740;22.908;2023-04-05T01:54:20;92601.50;;;-1.26;80.94
45793;BME280;31495;42.740;22.908;2023-04-05T01:55:20;92574.13;;;-1.40;81.22
45793;BME280;31495;42.740;22.908;2023-04-05T01:56:19;92598.13;;;-1.26;81.48
45793;BME280;31495;42.740;22.908;2023-04-05T01:57:19;92581.19;;;-1.26;81.30
45793;BME280;31495;42.740;22.908;2023-04-05T01:58:18;92589.56;;;-1.34;81.19
45793;BME280;31495;42.740;22.908;2023-04-05T01:59:18;92623.59;;;-1.10;81.11
45793;BME280;31495;42.740;22.908;2023-04-05T02:00:17;92618.84;;;-1.13;81.09
45793;BME280;31495;42.740;22.908;2023-04-05T02:01:17;92622.22;;;-1.04;81.03
45793;BME280;31495;42.740;22.908;2023-04-05T02:02:17;92620.13;;;-1.09;80.77
45793;BME280;31495;42.740;22.908;2023-04-05T02:03:16;92586.88;;;-1.32;80.49
45793;BME280;31495;42.740;22.908;2023-04-05T02:04:15;92619.31;;;-1.18;81.05
45793;BME280;31495;42.740;22.908;2023-04-05T02:05:15;92583.50;;;-1.41;80.91
45793;BME280;31495;42.740;22.908;2023-04-05T02:06:14;92587.47;;;-1.38;81.27
45793;BME280;31495;42.740;22.908;2023-04-05T02:07:14;92616.31;;;-1.13;81.37
45793;BME280;31495;42.740;22.908;2023-04-05T02:08:14;92566.81;;;-1.43;81.43
45793;BME280;31495;42.740;22.908;2023-04-05T02:09:14;92594.66;;;-1.25;81.12
45793;BME280;31495;42.740;22.908;2023-04-05T02:10:14;92613.44;;;-1.10;80.86
45793;BME280;31495;42.740;22.908;2023-04-05T02:11:14;92613.41;;;-1.18;81.15
45793;BME280;31495;42.740;22.908;2023-04-05T02:12:14;92590.50;;;-1.35;81.16
45793;BME280;31495;42.740;22.908;2023-04-05T02:13:13;92617.25;;;-1.14;81.45
45793;BME280;31495;42.740;22.908;2023-04-05T02:14:13;92582.53;;;-1.40;81.52
45793;BME280;31495;42.740;22.908;2023-04-05T02:15:12;92612.91;;;-1.22;81.63
45793;BME280;31495;42.740;22.908;2023-04-05T02:16:12;92618.00;;;-1.22;81.73
45793;BME280;31495;42.740;22.908;2023-04-05T02:17:12;92591.63;;;-1.29;81.29
45793;BME280;31495;42.740;22.908;2023-04-05T02:18:11;92602.16;;;-1.16;81.10
45793;BME280;31495;42.740;22.908;2023-04-05T02:19:11;92617.16;;;-0.96;81.34
45793;BME280;31495;42.740;22.908;2023-04-05T02:20:12;92599.53;;;-0.98;81.10
45793;BME280;31495;42.740;22.908;2023-04-05T02:21:12;92618.50;;;-0.76;81.13
45793;BME280;31495;42.740;22.908;2023-04-05T02:22:14;92608.50;;;-0.77;80.07
45793;BME280;31495;42.740;22.908;2023-04-05T02:23:16;92617.38;;;-0.81;79.53
45793;BME280;31495;42.740;22.908;2023-04-05T02:24:15;92622.75;;;-0.84;79.40
45793;BME280;31495;42.740;22.908;2023-04-05T02:25:14;92619.78;;;-0.80;79.64
45793;BME280;31495;42.740;22.908;2023-04-05T02:26:14;92596.72;;;-0.86;79.97
45793;BME280;31495;42.740;22.908;2023-04-05T02:27:14;92598.13;;;-0.92;79.72
45793;BME280;31495;42.740;22.908;2023-04-05T02:28:13;92590.47;;;-1.00;79.66
45793;BME280;31495;42.740;22.908;2023-04-05T02:29:13;92626.91;;;-0.83;80.06
45793;BME280;31495;42.740;22.908;2023-04-05T02:30:12;92570.75;;;-1.15;80.24
45793;BME280;31495;42.740;22.908;2023-04-05T02:31:12;92582.34;;;-1.12;80.04
45793;BME280;31495;42.740;22.908;2023-04-05T02:32:12;92576.47;;;-1.13;80.31
45793;BME280;31495;42.740;22.908;2023-04-05T02:33:12;92597.81;;;-0.89;80.65
45793;BME280;31495;42.740;22.908;2023-04-05T02:34:11;92618.38;;;-0.66;80.23
45793;BME280;31495;42.740;22.908;2023-04-05T02:35:12;92615.84;;;-0.58;80.27
45793;BME280;31495;42.740;22.908;2023-04-05T02:36:11;92605.00;;;-0.76;79.79
45793;BME280;31495;42.740;22.908;2023-04-05T02:37:14;92594.78;;;-0.93;79.79
45793;BME280;31495;42.740;22.908;2023-04-05T02:38:13;92593.84;;;-0.91;79.74
45793;BME280;31495;42.740;22.908;2023-04-05T02:39:12;92586.88;;;-0.89;79.79
45793;BME280;31495;42.740;22.908;2023-04-05T02:40:13;92568.41;;;-1.08;79.59
45793;BME280;31495;42.740;22.908;2023-04-05T02:41:13;92614.38;;;-0.77;79.97
45793;BME280;31495;42.740;22.908;2023-04-05T02:42:13;92575.22;;;-1.08;79.93
45793;BME280;31495;42.740;22.908;2023-04-05T02:43:12;92561.66;;;-1.25;80.12
45793;BME280;31495;42.740;22.908;2023-04-05T02:44:12;92577.09;;;-1.19;80.22
45793;BME280;31495;42.740;22.908;2023-04-05T02:45:12;92601.75;;;-1.03;80.40
45793;BME280;31495;42.740;22.908;2023-04-05T02:46:11;92596.63;;;-1.11;80.66
45793;BME280;31495;42.740;22.908;2023-04-05T02:47:11;92601.44;;;-1.00;81.30
45793;BME280;31495;42.740;22.908;2023-04-05T02:48:10;92607.66;;;-0.94;80.96
45793;BME280;31495;42.740;22.908;2023-04-05T02:49:09;92613.22;;;-0.90;80.44
45793;BME280;31495;42.740;22.908;2023-04-05T02:50:09;92611.44;;;-0.98;80.25
45793;BME280;31495;42.740;22.908;2023-04-05T02:51:09;92607.00;;;-0.96;80.17
45793;BME280;31495;42.740;22.908;2023-04-05T02:52:08;92602.72;;;-0.96;80.42
45793;BME280;31495;42.740;22.908;2023-04-05T02:53:08;92573.41;;;-1.24;79.58
45793;BME280;31495;42.740;22.908;2023-04-05T02:54:07;92608.63;;;-0.95;79.79
45793;BME280;31495;42.740;22.908;2023-04-05T02:55:06;92607.03;;;-0.88;80.02
45793;BME280;31495;42.740;22.908;2023-04-05T02:56:06;92612.13;;;-0.88;79.69
45793;BME280;31495;42.740;22.908;2023-04-05T02:57:06;92609.72;;;-0.89;79.83
45793;BME280;31495;42.740;22.908;2023-04-05T02:58:08;92602.13;;;-0.89;79.41
45793;BME280;31495;42.740;22.908;2023-04-05T02:59:08;92556.78;;;-1.19;78.93
45793;BME280;31495;42.740;22.908;2023-04-05T03:00:07;92593.56;;;-0.88;78.84
45793;BME280;31495;42.740;22.908;2023-04-05T03:01:09;92564.28;;;-1.09;79.06
45793;BME280;31495;42.740;22.908;2023-04-05T03:02:09;92601.81;;;-0.86;79.24
45793;BME280;31495;42.740;22.908;2023-04-05T03:03:09;92596.72;;;-0.86;79.12
45793;BME280;31495;42.740;22.908;2023-04-05T03:04:09;92602.59;;;-0.86;78.96
45793;BME280;31495;42.740;22.908;2023-04-05T03:05:10;92605.28;;;-0.87;78.80
45793;BME280;31495;42.740;22.908;2023-04-05T03:06:09;92576.03;;;-1.08;78.54
45793;BME280;31495;42.740;22.908;2023-04-05T03:07:09;92594.16;;;-0.95;78.67
45793;BME280;31495;42.740;22.908;2023-04-05T03:08:08;92601.00;;;-0.95;78.66
45793;BME280;31495;42.740;22.908;2023-04-05T03:09:17;92580.28;;;-1.08;78.57
45793;BME280;31495;42.740;22.908;2023-04-05T03:10:18;92574.69;;;-1.20;78.27
45793;BME280;31495;42.740;22.908;2023-04-05T03:11:20;92590.22;;;-1.23;78.49
45793;BME280;31495;42.740;22.908;2023-04-05T03:12:19;92585.47;;;-1.18;78.80
45793;BME280;31495;42.740;22.908;2023-04-05T03:13:19;92575.44;;;-1.28;78.51
45793;BME280;31495;42.740;22.908;2023-04-05T03:14:18;92553.19;;;-1.42;78.37
45793;BME280;31495;42.740;22.908;2023-04-05T03:15:18;92599.47;;;-1.14;78.74
45793;BME280;31495;42.740;22.908;2023-04-05T03:16:17;92594.72;;;-1.09;78.55
45793;BME280;31495;42.740;22.908;2023-04-05T03:17:18;92606.97;;;-1.04;78.71
45793;BME280;31495;42.740;22.908;2023-04-05T03:18:17;92574.22;;;-1.24;78.84
45793;BME280;31495;42.740;22.908;2023-04-05T03:19:17;92562.16;;;-1.22;78.32
45793;BME280;31495;42.740;22.908;2023-04-05T03:20:20;92610.03;;;-0.93;78.58
45793;BME280;31495;42.740;22.908;2023-04-05T03:21:20;92612.28;;;-0.89;78.01
45793;BME280;31495;42.740;22.908;2023-04-05T03:22:19;92590.97;;;-1.05;77.68
45793;BME280;31495;42.740;22.908;2023-04-05T03:23:19;92588.72;;;-1.08;77.74
45793;BME280;31495;42.740;22.908;2023-04-05T03:24:19;92581.72;;;-1.14;77.61
45793;BME280;31495;42.740;22.908;2023-04-05T03:25:19;92583.66;;;-1.08;77.75
45793;BME280;31495;42.740;22.908;2023-04-05T03:26:19;92594.44;;;-1.06;77.79
45793;BME280;31495;42.740;22.908;2023-04-05T03:27:18;92559.75;;;-1.23;77.67
45793;BME280;31495;42.740;22.908;2023-04-05T03:28:18;92586.50;;;-1.03;77.89
45793;BME280;31495;42.740;22.908;2023-04-05T03:29:17;92574.69;;;-1.20;77.32
45793;BME280;31495;42.740;22.908;2023-04-05T03:30:17;92601.59;;;-1.01;77.37
45793;BME280;31495;42.740;22.908;2023-04-05T03:31:16;92571.50;;;-1.31;77.79
45793;BME280;31495;42.740;22.908;2023-04-05T03:32:16;92569.88;;;-1.32;78.21
45793;BME280;31495;42.740;22.908;2023-04-05T03:33:16;92598.19;;;-1.18;77.96
45793;BME280;31495;42.740;22.908;2023-04-05T03:34:15;92551.91;;;-1.46;77.85
45793;BME280;31495;42.740;22.908;2023-04-05T03:35:15;92596.97;;;-1.06;77.94
45793;BME280;31495;42.740;22.908;2023-04-05T03:36:17;92590.09;;;-1.14;77.54
45793;BME280;31495;42.740;22.908;2023-04-05T03:37:18;92578.97;;;-1.21;77.64
45793;BME280;31495;42.740;22.908;2023-04-05T03:38:17;92597.28;;;-1.09;77.65
45793;BME280;31495;42.740;22.908;2023-04-05T03:39:17;92603.00;;;-1.07;77.90
45793;BME280;31495;42.740;22.908;2023-04-05T03:40:16;92551.63;;;-1.35;77.87
45793;BME280;31495;42.740;22.908;2023-04-05T03:41:15;92589.94;;;-1.20;77.12
45793;BME280;31495;42.740;22.908;2023-04-05T03:42:15;92607.44;;;-1.09;77.24
45793;BME280;31495;42.740;22.908;2023-04-05T03:43:16;92584.25;;;-1.14;76.97
45793;BME280;31495;42.740;22.908;2023-04-05T03:44:15;92605.44;;;-1.23;77.51
45793;BME280;31495;42.740;22.908;2023-04-05T03:45:15;92592.72;;;-1.32;77.62
45793;BME280;31495;42.740;22.908;2023-04-05T03:46:15;92616.81;;;-1.09;77.88
45793;BME280;31495;42.740;22.908;2023-04-05T03:47:14;92614.66;;;-1.22;77.30
45793;BME280;31495;42.740;22.908;2023-04-05T03:48:13;92621.03;;;-1.18;77.92
45793;BME280;31495;42.740;22.908;2023-04-05T03:49:18;92622.28;;;-1.22;77.76
45793;BME280;31495;42.740;22.908;2023-04-05T03:50:18;92617.34;;;-1.24;77.78
45793;BME280;31495;42.740;22.908;2023-04-05T03:51:17;92619.56;;;-1.29;77.65
45793;BME280;31495;42.740;22.908;2023-04-05T03:52:17;92623.38;;;-1.25;77.83
45793;BME280;31495;42.740;22.908;2023-04-05T03:53:17;92616.28;;;-1.21;77.98
45793;BME280;31495;42.740;22.908;2023-04-05T03:54:17;92622.81;;;-1.11;77.77
45793;BME280;31495;42.740;22.908;2023-04-05T03:55:16;92619.94;;;-1.16;77.57
45793;BME280;31495;42.740;22.908;2023-04-05T03:56:16;92596.88;;;-1.31;77.63
45793;BME280;31495;42.740;22.908;2023-04-05T03:57:16;92631.06;;;-1.08;77.43
45793;BME280;31495;42.740;22.908;2023-04-05T03:58:15;92634.41;;;-1.08;77.40
45793;BME280;31495;42.740;22.908;2023-04-05T03:59:15;92626.81;;;-1.08;77.63
45793;BME280;31495;42.740;22.908;2023-04-05T04:00:14;92587.00;;;-1.34;76.91
45793;BME280;31495;42.740;22.908;2023-04-05T04:01:16;92608.84;;;-1.15;76.50
45793;BME280;31495;42.740;22.908;2023-04-05T04:02:15;92639.03;;;-1.03;76.63
45793;BME280;31495;42.740;22.908;2023-04-05T04:03:15;92631.91;;;-1.00;77.10
45793;BME280;31495;42.740;22.908;2023-04-05T04:04:14;92634.31;;;-0.98;77.06
45793;BME280;31495;42.740;22.908;2023-04-05T04:05:15;92613.16;;;-1.07;77.13
45793;BME280;31495;42.740;22.908;2023-04-05T04:06:15;92618.72;;;-1.03;77.04
45793;BME280;31495;42.740;22.908;2023-04-05T04:07:16;92585.19;;;-1.15;76.72
45793;BME280;31495;42.740;22.908;2023-04-05T04:08:15;92620.66;;;-0.97;76.91
45793;BME280;31495;42.740;22.908;2023-04-05T04:09:15;92618.22;;;-1.07;76.34
45793;BME280;31495;42.740;22.908;2023-04-05T04:10:15;92590.88;;;-1.21;76.34
45793;BME280;31495;42.740;22.908;2023-04-05T04:11:18;92632.59;;;-0.89;76.30
45793;BME280;31495;42.740;22.908;2023-04-05T04:12:17;92627.00;;;-1.01;75.70
45793;BME280;31495;42.740;22.908;2023-04-05T04:13:17;92631.41;;;-1.03;75.56
45793;BME280;31495;42.740;22.908;2023-04-05T04:14:17;92611.66;;;-1.26;75.72
45793;BME280;31495;42.740;22.908;2023-04-05T04:15:16;92601.00;;;-1.30;75.90
45793;BME280;31495;42.740;22.908;2023-04-05T04:16:16;92645.41;;;-0.99;75.77
45793;BME280;31495;42.740;22.908;2023-04-05T04:17:30;92593.88;;;-1.26;75.65
45793;BME280;31495;42.740;22.908;2023-04-05T04:18:30;92634.41;;;-1.08;75.74
45793;BME280;31495;42.740;22.908;2023-04-05T04:19:29;92644.63;;;-1.00;75.73
45793;BME280;31495;42.740;22.908;2023-04-05T04:20:29;92635.41;;;-1.01;75.94
45793;BME280;31495;42.740;22.908;2023-04-05T04:21:29;92619.78;;;-1.14;76.01
45793;BME280;31495;42.740;22.908;2023-04-05T04:22:30;92642.56;;;-0.96;76.40
45793;BME280;31495;42.740;22.908;2023-04-05T04:23:36;92639.88;;;-0.95;76.23
45793;BME280;31495;42.740;22.908;2023-04-05T04:24:36;92642.69;;;-1.06;75.49
45793;BME280;31495;42.740;22.908;2023-04-05T04:25:36;92648.09;;;-1.01;75.63
45793;BME280;31495;42.740;22.908;2023-04-05T04:26:36;92622.97;;;-1.12;75.69
45793;BME280;31495;42.740;22.908;2023-04-05T04:27:40;92651.13;;;-0.97;75.63
45793;BME280;31495;42.740;22.908;2023-04-05T04:28:40;92626.97;;;-1.09;75.48
45793;BME280;31495;42.740;22.908;2023-04-05T04:29:42;92614.72;;;-1.14;76.40
45793;BME280;31495;42.740;22.908;2023-04-05T04:30:47;92623.25;;;-1.15;76.10
45793;BME280;31495;42.740;22.908;2023-04-05T04:31:46;92638.19;;;-1.12;76.25
45793;BME280;31495;42.740;22.908;2023-04-05T04:32:47;92616.56;;;-1.24;76.52
45793;BME280;31495;42.740;22.908;2023-04-05T04:33:50;92633.75;;;-1.10;76.88
45793;BME280;31495;42.740;22.908;2023-04-05T04:34:50;92640.44;;;-1.09;76.28
45793;BME280;31495;42.740;22.908;2023-04-05T04:35:52;92595.84;;;-1.38;76.31
45793;BME280;31495;42.740;22.908;2023-04-05T04:36:52;92632.78;;;-1.17;76.60
45793;BME280;31495;42.740;22.908;2023-04-05T04:38:01;92637.13;;;-1.09;76.82
45793;BME280;31495;42.740;22.908;2023-04-05T04:39:01;92626.28;;;-1.12;76.30
45793;BME280;31495;42.740;22.908;2023-04-05T04:40:04;92610.53;;;-1.23;76.11
45793;BME280;31495;42.740;22.908;2023-04-05T04:41:09;92638.22;;;-1.04;76.27
45793;BME280;31495;42.740;22.908;2023-04-05T04:42:08;92592.75;;;-1.23;76.33
45793;BME280;31495;42.740;22.908;2023-04-05T04:43:11;92641.63;;;-0.95;76.15
45793;BME280;31495;42.740;22.908;2023-04-05T04:44:12;92630.31;;;-1.01;76.58
45793;BME280;31495;42.740;22.908;2023-04-05T04:45:14;92633.78;;;-1.02;76.04
45793;BME280;31495;42.740;22.908;2023-04-05T04:46:16;92615.00;;;-1.17;75.84
45793;BME280;31495;42.740;22.908;2023-04-05T04:47:17;92649.72;;;-0.91;76.08
45793;BME280;31495;42.740;22.908;2023-04-05T04:48:19;92592.16;;;-1.17;75.95
45793;BME280;31495;42.740;22.908;2023-04-05T04:49:19;92646.25;;;-0.82;75.74
45793;BME280;31495;42.740;22.908;2023-04-05T04:50:19;92655.00;;;-0.85;75.66
45793;BME280;31495;42.740;22.908;2023-04-05T04:51:19;92628.53;;;-1.08;75.24
45793;BME280;31495;42.740;22.908;2023-04-05T04:52:18;92635.53;;;-1.02;75.51
45793;BME280;31495;42.740;22.908;2023-04-05T04:53:18;92610.75;;;-1.08;75.17
45793;BME280;31495;42.740;22.908;2023-04-05T04:54:17;92641.69;;;-0.79;75.60
45793;BME280;31495;42.740;22.908;2023-04-05T04:55:20;92630.56;;;-0.78;75.17
45793;BME280;31495;42.740;22.908;2023-04-05T04:56:23;92647.09;;;-0.73;74.82
45793;BME280;31495;42.740;22.908;2023-04-05T04:57:23;92638.22;;;-0.69;74.80
45793;BME280;31495;42.740;22.908;2023-04-05T04:58:24;92622.81;;;-0.68;74.82
45793;BME280;31495;42.740;22.908;2023-04-05T04:59:23;92649.41;;;-0.54;74.54
45793;BME280;31495;42.740;22.908;2023-04-05T05:00:23;92639.69;;;-0.59;74.55
45793;BME280;31495;42.740;22.908;2023-04-05T05:01:23;92642.38;;;-0.60;74.92
45793;BME280;31495;42.740;22.908;2023-04-05T05:02:23;92648.28;;;-0.51;74.15
45793;BME280;31495;42.740;22.908;2023-04-05T05:03:23;92640.00;;;-0.62;74.40
45793;BME280;31495;42.740;22.908;2023-04-05T05:04:22;92654.34;;;-0.44;74.14
45793;BME280;31495;42.740;22.908;2023-04-05T05:05:22;92648.78;;;-0.40;74.08
45793;BME280;31495;42.740;22.908;2023-04-05T05:06:21;92638.94;;;-0.34;74.11
45793;BME280;31495;42.740;22.908;2023-04-05T05:07:20;92654.56;;;-0.21;73.10
45793;BME280;31495;42.740;22.908;2023-04-05T05:08:20;92644.53;;;-0.31;73.15
45793;BME280;31495;42.740;22.908;2023-04-05T05:09:20;92641.63;;;-0.44;72.88
45793;BME280;31495;42.740;22.908;2023-04-05T05:10:19;92625.69;;;-0.63;73.24
45793;BME280;31495;42.740;22.908;2023-04-05T05:11:19;92661.28;;;-0.54;73.64
45793;BME280;31495;42.740;22.908;2023-04-05T05:12:20;92647.94;;;-0.57;73.96
45793;BME280;31495;42.740;22.908;2023-04-05T05:13:20;92658.44;;;-0.51;73.64
45793;BME280;31495;42.740;22.908;2023-04-05T05:14:20;92629.31;;;-0.73;74.45
45793;BME280;31495;42.740;22.908;2023-04-05T05:15:20;92649.53;;;-0.56;74.52
45793;BME280;31495;42.740;22.908;2023-04-05T05:16:19;92621.19;;;-0.77;74.13
45793;BME280;31495;42.740;22.908;2023-04-05T05:17:22;92661.97;;;-0.44;73.90
45793;BME280;31495;42.740;22.908;2023-04-05T05:18:22;92667.38;;;-0.39;74.43
45793;BME280;31495;42.740;22.908;2023-04-05T05:19:21;92628.22;;;-0.63;72.92
45793;BME280;31495;42.740;22.908;2023-04-05T05:20:21;92655.28;;;-0.45;73.01
45793;BME280;31495;42.740;22.908;2023-04-05T05:21:20;92616.97;;;-0.60;72.50
45793;BME280;31495;42.740;22.908;2023-04-05T05:22:19;92660.84;;;-0.42;72.86
45793;BME280;31495;42.740;22.908;2023-04-05T05:23:19;92654.19;;;-0.34;73.74
45793;BME280;31495;42.740;22.908;2023-04-05T05:24:19;92632.28;;;-0.35;72.95
45793;BME280;31495;42.740;22.908;2023-04-05T05:25:19;92637.97;;;-0.42;72.64
45793;BME280;31495;42.740;22.908;2023-04-05T05:26:20;92650.03;;;-0.44;73.08